D/T METAR WX W/DIR W/SPE G/SPE TEMP DEWP
22/01/20 06:50 EGVP 220650Z 35002KT 0800 FG OVC002 03/03 Q1037 RMK AMB FG N (350°) 2.3mph 3°C 3°C
22/01/20 05:50 EGVP 220550Z AUTO 25002KT 0200 // OVC002/// 03/03 Q1037 WSW (250°) 2.3mph 3°C 3°C
22/01/20 04:50 EGVP 220450Z AUTO 36004KT 2600 // OVC003/// 04/03 Q1037 N (360°) 4.6mph 4°C 3°C
22/01/20 03:50 EGVP 220350Z AUTO 32004KT 4300 // BKN006/// BKN012/// 02/02 Q1037 NW (320°) 4.6mph 2°C 2°C
22/01/20 02:50 EGVP 220250Z AUTO 32003KT 4900 // OVC012/// 02/01 Q1038 NW (320°) 3.5mph 2°C 1°C
22/01/20 01:50 EGVP 220150Z AUTO 33003KT 6000 // OVC015/// 02/01 Q1038 NNW (330°) 3.5mph 2°C 1°C
22/01/20 00:50 EGVP 220050Z AUTO 20001KT 4700 // OVC017/// 00/M00 Q1039 SSW (200°) 1.2mph 0°C 0°C
21/01/20 23:50 EGVP 212350Z AUTO 30001KT 3100 // BKN020/// M00/M01 Q1039 WNW (300°) 1.2mph 0°C -1°C
21/01/20 22:50 EGVP 212250Z AUTO 29002KT 5000 // NCD 00/00 Q1039 WNW (290°) 2.3mph 0°C 0°C
21/01/20 21:50 EGVP 212150Z AUTO 31004KT 4200 // NCD 00/M00 Q1039 NW (310°) 4.6mph 0°C 0°C
21/01/20 20:50 EGVP 212050Z AUTO 30003KT 9000 // NCD 01/00 Q1039 WNW (300°) 3.5mph 1°C 0°C
21/01/20 19:50 EGVP 211950Z 31002KT 6000 BR SKC 01/00 Q1040 BECMG 3000 BR RMK WHT BECMG YLO1 BR NW (310°) 2.3mph 1°C 0°C
21/01/20 19:31 EGVP 211931Z 30002KT 7000 BR SKC 01/00 Q1040 BECMG 3000 BR RMK WHT BECMG YLO1 BR WNW (300°) 2.3mph 1°C 0°C
21/01/20 18:50 EGVP 211850Z 31003KT CAVOK 02/01 Q1040 BECMG 6000 HZ RMK BLU BECMG WHT NW (310°) 3.5mph 2°C 1°C
21/01/20 18:23 EGVP 211823Z 27002KT CAVOK 02/01 Q1040 BECMG 6000 HZ RMK BLU BECMG WHT W (270°) 2.3mph 2°C 1°C
21/01/20 17:50 EGVP 211750Z 30002KT CAVOK 02/00 Q1040 BECMG 6000 HZ RMK BLU BECMG WHT WNW (300°) 2.3mph 2°C 0°C
21/01/20 17:22 EGVP 211722Z 33002KT CAVOK 05/02 Q1040 NOSIG RMK BLU BLU NNW (330°) 2.3mph 5°C 2°C
21/01/20 16:50 EGVP 211650Z 01002KT CAVOK 05/02 Q1040 NOSIG RMK BLU BLU N (10°) 2.3mph 5°C 2°C
21/01/20 16:21 EGVP 211621Z 36001KT CAVOK 06/02 Q1040 NOSIG RMK BLU BLU N (360°) 1.2mph 6°C 2°C
21/01/20 15:50 EGVP 211550Z 25001KT CAVOK 08/03 Q1040 NOSIG RMK BLU BLU WSW (250°) 1.2mph 8°C 3°C
21/01/20 15:21 EGVP 211521Z 15002KT CAVOK 08/02 Q1040 NOSIG RMK BLU BLU SSE (150°) 2.3mph 8°C 2°C
21/01/20 14:21 EGVP 211421Z 15001KT CAVOK 08/02 Q1040 NOSIG RMK BLU BLU SSE (150°) 1.2mph 8°C 2°C
21/01/20 13:22 EGVP 211322Z 01003KT CAVOK 07/02 Q1040 NOSIG RMK BLU BLU N (10°) 3.5mph 7°C 2°C
21/01/20 12:50 EGVP 211250Z 02003KT CAVOK 06/03 Q1041 NOSIG RMK BLU BLU NNE (20°) 3.5mph 6°C 3°C
21/01/20 12:21 EGVP 211221Z 12002KT CAVOK 06/03 Q1042 NOSIG RMK BLU BLU ESE (120°) 2.3mph 6°C 3°C
21/01/20 12:03 EGVP 211203Z 05001KT CAVOK 07/02 Q1042 NOSIG RMK BLU BLU NE (50°) 1.2mph 7°C 2°C
21/01/20 11:23 EGVP 211123Z 00000KT 9999 7000SE HZ FEW019 05/03 Q1042 BECMG 9999 NSW RMK WHT BECMG BLU HZ N (0°) 5°C 3°C
21/01/20 10:50 EGVP 211050Z 00000KT 6000 HZ FEW019 03/02 Q1042 BECMG 8000 RMK WHT BECMG BLU HZ N (0°) 3°C 2°C
21/01/20 10:22 EGVP 211022Z 34001KT 6000 BR FEW017 01/01 Q1042 BECMG 8000 HZ RMK WHT BECMG BLU BR NNW (340°) 1.2mph 1°C 1°C
21/01/20 09:50 EGVP 210950Z 33002KT 6000 BR FEW017 M00/M01 Q1042 BECMG 8000 HZ RMK WHT BECMG BLU BR NNW (330°) 2.3mph 0°C -1°C
21/01/20 09:22 EGVP 210922Z 33001KT 6000 BR FEW017 M01/M02 Q1042 BECMG 8000 HZ RMK WHT TEMPO BLU BR NNW (330°) 1.2mph -1°C -2°C
21/01/20 08:50 EGVP 210850Z 35002KT 6000 BR FEW020 M02/M03 Q1042 NOSIG RMK WHT WHT BR N (350°) 2.3mph -2°C -3°C
21/01/20 08:21 EGVP 210821Z 00000KT 5000 3000SE BR FEW070 M03/M04 Q1042 TEMPO 0500 FZFG RMK YLO1 TEMPO RED BR N (0°) -3°C -4°C
21/01/20 07:50 EGVP 210750Z 32002KT 5000 1200SE VCFG FEW070 M03/M03 Q1042 TEMPO 0500 FZFG RMK AMB TEMPO RED VCFG NW (320°) 2.3mph -3°C -3°C
21/01/20 07:43 EGVP 210743Z 17001KT 5000 0800SE BCFG FEW070 M03/M03 Q1042 AMB RMK AMB BCFG S (170°) 1.2mph -3°C -3°C
21/01/20 06:50 EGVP 210650Z 16001KT 4000 0500S BCFG FEW070 M03/M03 Q1042 RMK RED BCFG SSE (160°) 1.2mph -3°C -3°C
21/01/20 05:50 EGVP 210550Z AUTO 33003KT 3600 // NCD M02/M02 Q1042 NNW (330°) 3.5mph -2°C -2°C
21/01/20 04:50 EGVP 210450Z AUTO 34002KT 3800 // NCD M03/M03 Q1042 NNW (340°) 2.3mph -3°C -3°C
21/01/20 03:50 EGVP 210350Z AUTO 35003KT 3300 // NCD M03/M03 Q1042 N (350°) 3.5mph -3°C -3°C
21/01/20 02:50 EGVP 210250Z AUTO 02001KT 0150 // BKN001/// M02/M03 Q1043 NNE (20°) 1.2mph -2°C -3°C
21/01/20 01:50 EGVP 210150Z AUTO 31003KT 0200 // BKN001/// M02/M03 Q1043 NW (310°) 3.5mph -2°C -3°C
21/01/20 00:50 EGVP 210050Z AUTO 16003KT 0200 // SCT001/// M02/M02 Q1044 SSE (160°) 3.5mph -2°C -2°C
20/01/20 23:50 EGVP 202350Z AUTO 00000KT 2200 // NCD M00/M01 Q1044 N (0°) 0°C -1°C
20/01/20 22:50 EGVP 202250Z AUTO 32004KT 4400 // NCD M00/M01 Q1044 NW (320°) 4.6mph 0°C -1°C
20/01/20 21:50 EGVP 202150Z AUTO 32001KT 5000 // NCD M00/M02 Q1045 NW (320°) 1.2mph 0°C -2°C
20/01/20 21:20 EGVP 202120Z 31004KT 7000 BR FEW250 01/00 Q1045 NOSIG RMK WHT WHT BR NW (310°) 4.6mph 1°C 0°C
20/01/20 20:50 EGVP 202050Z 28002KT 7000 BR FEW250 01/M00 Q1045 NOSIG RMK WHT WHT BR W (280°) 2.3mph 1°C 0°C
20/01/20 20:32 EGVP 202032Z 25002KT 7000 HZ SKC 00/M01 Q1045 NOSIG RMK WHT WHT HZ WSW (250°) 2.3mph 0°C -1°C